createdAt,value
2023-02-18T00:01:45.842Z,101555.75
2023-02-18T00:04:13.850Z,101558.31
2023-02-18T00:06:41.807Z,101551.16
2023-02-18T00:09:12.514Z,101551.09
2023-02-18T00:11:40.711Z,101555.31
2023-02-18T00:14:12.161Z,101556.19
2023-02-18T00:16:40.289Z,101547.91
2023-02-18T00:19:11.170Z,101566.22
2023-02-18T00:21:39.560Z,101557.59
2023-02-18T00:24:08.954Z,101558.34
2023-02-18T00:26:38.261Z,101563.13
2023-02-18T00:29:06.106Z,101568.22
2023-02-18T00:31:36.125Z,101564.28
2023-02-18T00:34:05.741Z,101570.34
2023-02-18T00:36:34.367Z,101571.47
2023-02-18T00:39:04.862Z,101575.22
2023-02-18T00:41:33.377Z,101579.81
2023-02-18T00:44:02.770Z,101578.78
2023-02-18T00:46:31.070Z,101578.28
2023-02-18T00:48:58.937Z,101583.72
2023-02-18T00:51:26.969Z,101580.09
2023-02-18T00:53:55.435Z,101585.50
2023-02-18T00:56:23.504Z,101578.03
2023-02-18T00:58:52.150Z,101592.13
2023-02-18T01:01:22.071Z,101593.00
2023-02-18T01:03:49.943Z,101582.19
2023-02-18T01:06:17.834Z,101585.09
2023-02-18T01:08:45.906Z,101589.47
2023-02-18T01:11:14.530Z,101593.63
2023-02-18T01:13:43.200Z,101589.84
2023-02-18T01:16:15.250Z,101588.19
2023-02-18T01:18:44.771Z,101583.78
2023-02-18T01:21:12.844Z,101595.72
2023-02-18T01:23:42.862Z,101598.13
2023-02-18T01:26:11.826Z,101594.63
2023-02-18T01:28:40.760Z,101600.78
2023-02-18T01:31:10.944Z,101593.22
2023-02-18T01:33:39.158Z,101595.22
2023-02-18T01:36:10.165Z,101598.38
2023-02-18T01:38:38.699Z,101584.16
2023-02-18T01:41:07.451Z,101598.97
2023-02-18T01:43:35.868Z,101592.72
2023-02-18T01:46:13.637Z,101590.88
2023-02-18T01:48:45.265Z,101587.25
2023-02-18T01:51:18.298Z,101586.50
2023-02-18T01:53:53.628Z,101583.03
2023-02-18T01:56:27.246Z,101581.56
2023-02-18T01:58:58.066Z,101574.03
2023-02-18T02:01:27.923Z,101568.34
2023-02-18T02:03:55.958Z,101570.88
2023-02-18T02:06:26.764Z,101566.34
2023-02-18T02:09:04.399Z,101563.63
2023-02-18T02:11:59.715Z,101567.78
2023-02-18T02:14:41.985Z,101563.44
2023-02-18T02:17:17.982Z,101562.28
2023-02-18T02:20:24.409Z,101570.28
2023-02-18T02:23:35.813Z,101571.25
2023-02-18T02:26:33.464Z,101566.81
2023-02-18T02:29:18.519Z,101565.94
2023-02-18T02:32:15.092Z,101560.78
2023-02-18T02:34:53.066Z,101556.34
2023-02-18T02:37:28.188Z,101568.59
2023-02-18T02:40:06.196Z,101557.28
2023-02-18T02:42:46.461Z,101553.06
2023-02-18T02:45:25.127Z,101546.88
2023-02-18T02:48:02.138Z,101549.16
2023-02-18T02:50:38.884Z,101538.97
2023-02-18T02:53:15.928Z,101541.56
2023-02-18T02:55:43.942Z,101541.56
2023-02-18T02:58:17.507Z,101545.25
2023-02-18T03:01:02.365Z,101534.34
2023-02-18T03:03:57.719Z,101531.81
2023-02-18T03:06:45.654Z,101533.84
2023-02-18T03:09:21.484Z,101523.78
2023-02-18T03:11:59.813Z,101522.97
2023-02-18T03:14:31.673Z,101524.63
2023-02-18T03:17:03.247Z,101524.16
2023-02-18T03:19:36.276Z,101534.63
2023-02-18T03:22:10.100Z,101533.38
2023-02-18T03:24:41.648Z,101532.28
2023-02-18T03:27:16.402Z,101534.34
2023-02-18T03:29:47.733Z,101545.88
2023-02-18T03:32:19.682Z,101533.78
2023-02-18T03:34:51.664Z,101537.66
2023-02-18T03:37:21.712Z,101539.94
2023-02-18T03:39:53.797Z,101528.88
2023-02-18T03:42:26.119Z,101533.09
2023-02-18T03:44:54.104Z,101544.16
2023-02-18T03:47:22.062Z,101545.13
2023-02-18T03:49:49.908Z,101543.59
2023-02-18T03:52:17.881Z,101531.03
2023-02-18T03:54:47.157Z,101534.03
2023-02-18T03:57:14.987Z,101524.88
2023-02-18T03:59:43.180Z,101519.69
2023-02-18T04:02:11.126Z,101523.88
2023-02-18T04:04:39.079Z,101529.78
2023-02-18T04:07:07.090Z,101534.78
2023-02-18T04:09:34.913Z,101527.78
2023-02-18T04:12:04.155Z,101529.41
2023-02-18T04:14:32.178Z,101531.31
2023-02-18T04:16:59.979Z,101518.09
2023-02-18T04:19:27.855Z,101518.84
2023-02-18T04:21:55.730Z,101515.16
2023-02-18T04:24:23.658Z,101519.16
2023-02-18T04:26:51.603Z,101510.06
2023-02-18T04:29:21.009Z,101501.94
2023-02-18T04:31:48.946Z,101499.94
2023-02-18T04:34:16.900Z,101498.19
2023-02-18T04:36:44.886Z,101491.00
2023-02-18T04:39:12.848Z,101490.56
2023-02-18T04:41:40.927Z,101484.25
2023-02-18T04:44:08.822Z,101477.69
2023-02-18T04:46:38.048Z,101471.75
2023-02-18T04:49:05.864Z,101478.94
2023-02-18T04:51:33.830Z,101472.94
2023-02-18T04:54:01.729Z,101471.63
2023-02-18T04:56:29.566Z,101469.22
2023-02-18T04:58:57.504Z,101478.28
2023-02-18T05:01:25.345Z,101484.25
2023-02-18T05:03:54.587Z,101483.22
2023-02-18T05:06:22.523Z,101477.69
2023-02-18T05:08:50.340Z,101475.97
2023-02-18T05:11:18.204Z,101476.66
2023-02-18T05:13:46.247Z,101474.88
2023-02-18T05:16:14.187Z,101469.47
2023-02-18T05:18:42.387Z,101468.22
2023-02-18T05:21:12.299Z,101469.34
2023-02-18T05:23:40.181Z,101478.31
2023-02-18T05:26:08.218Z,101463.50
2023-02-18T05:28:36.302Z,101468.69
2023-02-18T05:31:04.412Z,101464.22
2023-02-18T05:33:32.313Z,101455.25
2023-02-18T05:36:00.192Z,101451.63
2023-02-18T05:38:29.414Z,101449.59
2023-02-18T05:40:57.430Z,101456.06
2023-02-18T05:43:25.427Z,101448.78
2023-02-18T05:45:53.346Z,101439.16
2023-02-18T05:48:21.148Z,101431.16
2023-02-18T05:50:49.034Z,101427.53
2023-02-18T05:53:17.717Z,101417.09
2023-02-18T05:55:46.992Z,101419.66
2023-02-18T05:58:17.134Z,101426.81
2023-02-18T06:00:45.031Z,101433.81
2023-02-18T06:03:12.875Z,101437.91
2023-02-18T06:05:40.770Z,101427.34
2023-02-18T06:08:08.646Z,101417.91
2023-02-18T06:10:36.520Z,101415.19
2023-02-18T06:13:05.783Z,101412.72
2023-02-18T06:15:33.975Z,101417.53
2023-02-18T06:18:01.859Z,101410.56
2023-02-18T06:20:29.744Z,101407.16
2023-02-18T06:22:57.577Z,101398.03
2023-02-18T06:25:25.781Z,101380.25
2023-02-18T06:27:53.651Z,101377.84
2023-02-18T06:30:24.332Z,101368.50
2023-02-18T06:32:52.526Z,101371.09
2023-02-18T06:35:20.457Z,101369.28
2023-02-18T06:37:48.319Z,101365.50
2023-02-18T06:40:16.232Z,101366.47
2023-02-18T06:42:44.152Z,101366.47
2023-02-18T06:45:12.010Z,101360.84
2023-02-18T06:47:41.212Z,101354.03
2023-02-18T06:50:09.517Z,101352.44
2023-02-18T06:52:38.126Z,101334.41
2023-02-18T06:55:07.016Z,101337.06
2023-02-18T06:57:35.224Z,101328.69
2023-02-18T07:00:03.152Z,101326.44
2023-02-18T07:02:30.907Z,101328.94
2023-02-18T07:05:00.345Z,101314.09
2023-02-18T07:07:28.183Z,101303.56
2023-02-18T07:09:56.018Z,101301.72
2023-02-18T07:12:23.966Z,101292.84
2023-02-18T07:14:51.861Z,101289.56
2023-02-18T07:17:19.994Z,101287.34
2023-02-18T07:19:48.179Z,101290.00
2023-02-18T07:22:17.389Z,101291.53
2023-02-18T07:24:45.539Z,101304.81
2023-02-18T07:27:13.569Z,101288.78
2023-02-18T07:29:41.404Z,101284.34
2023-02-18T07:32:09.286Z,101270.84
2023-02-18T07:34:37.346Z,101262.81
2023-02-18T07:37:09.267Z,101242.81
2023-02-18T07:39:41.379Z,101226.31
2023-02-18T07:42:09.841Z,101220.13
2023-02-18T07:44:38.397Z,101217.03
2023-02-18T07:47:08.406Z,101221.19
2023-02-18T07:49:36.457Z,101225.44
2023-02-18T07:52:05.483Z,101217.47
2023-02-18T07:54:33.576Z,101202.31
2023-02-18T07:57:02.890Z,101192.22
2023-02-18T07:59:30.930Z,101178.00
2023-02-18T08:01:58.937Z,101169.78
2023-02-18T08:04:26.971Z,101167.63
2023-02-18T08:06:55.080Z,101162.22
2023-02-18T08:09:23.037Z,101156.91
2023-02-18T08:11:51.182Z,101153.06
2023-02-18T08:14:20.604Z,101149.25
2023-02-18T08:16:48.725Z,101152.69
2023-02-18T08:19:16.798Z,101157.03
2023-02-18T08:21:44.663Z,101145.50
2023-02-18T08:24:12.774Z,101143.06
2023-02-18T08:26:48.667Z,101145.66
2023-02-18T08:29:28.720Z,101149.88
2023-02-18T08:31:57.418Z,101142.06
2023-02-18T08:34:25.336Z,101141.06
2023-02-18T08:36:53.303Z,101147.28
2023-02-18T08:39:21.210Z,101142.13
2023-02-18T08:41:49.159Z,101139.78
2023-02-18T08:44:17.202Z,101126.16
2023-02-18T08:46:48.207Z,101123.56
2023-02-18T08:49:16.174Z,101125.81
2023-02-18T08:51:44.606Z,101115.81
2023-02-18T08:54:12.436Z,101101.34
2023-02-18T08:56:40.737Z,101083.75
2023-02-18T08:59:08.733Z,101083.09
2023-02-18T09:01:37.124Z,101077.56
2023-02-18T09:04:06.695Z,101069.19
2023-02-18T09:06:38.821Z,101064.91
2023-02-18T09:09:07.288Z,101059.94
2023-02-18T09:11:35.568Z,101039.78
2023-02-18T09:14:04.123Z,101031.50
2023-02-18T09:16:32.062Z,101023.72
2023-02-18T09:19:00.111Z,101011.72
2023-02-18T09:21:29.833Z,101010.06
2023-02-18T09:23:57.679Z,100996.19
2023-02-18T09:26:27.329Z,100997.69
2023-02-18T09:28:56.546Z,100998.31
2023-02-18T09:31:26.497Z,100994.72
2023-02-18T09:33:56.820Z,100994.50
2023-02-18T09:36:32.503Z,100985.56
2023-02-18T09:39:01.019Z,100968.59
2023-02-18T09:41:38.809Z,100972.75
2023-02-18T09:44:12.730Z,100972.88
2023-02-18T09:46:44.476Z,100962.25
2023-02-18T09:49:18.425Z,100966.06
2023-02-18T09:51:48.141Z,100963.88
2023-02-18T09:54:19.917Z,100955.59
2023-02-18T09:56:49.073Z,100939.25
2023-02-18T09:59:20.010Z,100940.50
2023-02-18T10:01:52.106Z,100929.13
2023-02-18T10:04:25.186Z,100923.75
2023-02-18T10:06:55.853Z,100926.47
2023-02-18T10:09:27.084Z,100917.09
2023-02-18T10:11:58.458Z,100882.94
2023-02-18T10:14:27.619Z,100916.31
2023-02-18T10:16:55.678Z,100907.84
2023-02-18T10:19:29.019Z,100919.63
2023-02-18T10:21:59.041Z,100923.41
2023-02-18T10:24:31.532Z,100902.28
2023-02-18T10:27:00.771Z,100886.53
2023-02-18T10:29:32.281Z,100892.56
2023-02-18T10:32:09.869Z,100898.66
2023-02-18T10:34:42.771Z,100896.47
2023-02-18T10:37:30.270Z,100891.50
2023-02-18T10:40:11.795Z,100886.94
2023-02-18T10:42:53.009Z,100883.56
2023-02-18T10:45:32.900Z,100868.59
2023-02-18T10:48:18.545Z,100862.19
2023-02-18T10:50:47.720Z,100852.56
2023-02-18T10:53:23.659Z,100855.75
2023-02-18T10:55:54.542Z,100849.47
2023-02-18T10:58:28.353Z,100847.69
2023-02-18T11:00:56.759Z,100835.84
2023-02-18T11:03:26.710Z,100833.72
2023-02-18T11:05:57.550Z,100823.22
2023-02-18T11:08:30.157Z,100828.81
2023-02-18T11:10:59.338Z,100817.97
2023-02-18T11:13:28.808Z,100818.94
2023-02-18T11:15:59.342Z,100812.84
2023-02-18T11:18:37.310Z,100812.84
2023-02-18T11:21:08.189Z,100805.88
2023-02-18T11:23:48.386Z,100797.88
2023-02-18T11:26:18.857Z,100788.19
2023-02-18T11:28:49.191Z,100775.38
2023-02-18T11:31:23.348Z,100769.59
2023-02-18T11:33:54.360Z,100764.94
2023-02-18T11:36:27.250Z,100761.38
2023-02-18T11:39:04.417Z,100762.63
2023-02-18T11:41:36.592Z,100754.47
2023-02-18T11:44:07.310Z,100748.50
2023-02-18T11:46:35.625Z,100749.75
2023-02-18T11:49:23.356Z,100745.56
2023-02-18T11:51:52.042Z,100735.78
2023-02-18T11:54:30.372Z,100744.72
2023-02-18T11:57:01.127Z,100749.97
2023-02-18T11:59:36.411Z,100750.81
2023-02-18T12:02:23.451Z,100755.19
2023-02-18T12:04:57.669Z,100767.28
2023-02-18T12:07:31.882Z,100764.63
2023-02-18T12:10:09.372Z,100770.72
2023-02-18T12:12:45.039Z,100776.81
2023-02-18T12:15:17.948Z,100770.91
2023-02-18T12:18:21.988Z,100772.25
2023-02-18T12:21:19.244Z,100785.06
2023-02-18T12:23:58.037Z,100784.03
2023-02-18T12:26:30.895Z,100778.00
2023-02-18T12:29:28.869Z,100786.31
2023-02-18T12:32:20.819Z,100773.47
2023-02-18T12:34:59.046Z,100793.84
2023-02-18T12:37:45.356Z,100803.09
2023-02-18T12:40:31.382Z,100787.78
2023-02-18T12:43:13.145Z,100800.16
2023-02-18T12:45:55.276Z,100802.47
2023-02-18T12:48:39.749Z,100798.34
2023-02-18T12:51:20.005Z,100815.69
2023-02-18T12:54:13.679Z,100807.97
2023-02-18T12:57:06.077Z,100823.13
2023-02-18T13:00:11.940Z,100816.53
2023-02-18T13:03:18.761Z,100809.66
2023-02-18T13:05:58.435Z,100815.09
2023-02-18T13:08:40.458Z,100822.44
2023-02-18T13:11:35.704Z,100827.00
2023-02-18T13:14:11.021Z,100834.06
2023-02-18T13:16:40.916Z,100850.69
2023-02-18T13:19:20.394Z,100836.44
2023-02-18T13:21:50.882Z,100852.22
2023-02-18T13:24:27.480Z,100837.97
2023-02-18T13:27:02.852Z,100854.69
2023-02-18T13:29:35.856Z,100860.41
2023-02-18T13:32:14.508Z,100865.94
2023-02-18T13:34:52.583Z,100874.41
2023-02-18T13:37:26.997Z,100876.81
2023-02-18T13:39:57.486Z,100880.84
2023-02-18T13:42:35.097Z,100885.75
2023-02-18T13:45:33.966Z,100899.41
2023-02-18T13:48:02.737Z,100893.66
2023-02-18T13:50:43.175Z,100893.88
2023-02-18T13:53:20.936Z,100895.97
2023-02-18T13:55:55.149Z,100891.09
2023-02-18T13:58:26.833Z,100913.94
2023-02-18T14:01:00.401Z,100917.22
2023-02-18T14:03:54.458Z,100930.38
2023-02-18T14:06:26.016Z,100930.75
2023-02-18T14:09:05.565Z,100933.53
2023-02-18T14:11:47.868Z,100950.25
2023-02-18T14:14:32.521Z,100942.03
2023-02-18T14:17:38.545Z,100962.66
2023-02-18T14:20:45.393Z,100979.75
2023-02-18T14:23:43.449Z,100988.78
2023-02-18T14:26:20.365Z,100998.91
2023-02-18T14:28:55.784Z,101017.13
2023-02-18T14:31:32.511Z,101004.16
2023-02-18T14:34:33.990Z,101016.41
2023-02-18T14:37:14.144Z,101019.84
2023-02-18T14:39:55.544Z,101021.88
2023-02-18T14:42:37.107Z,101045.59
2023-02-18T14:45:16.773Z,101050.63
2023-02-18T14:48:17.076Z,101048.81
2023-02-18T14:50:50.109Z,101053.81
2023-02-18T14:53:22.287Z,101055.69
2023-02-18T14:55:55.022Z,101049.66
2023-02-18T14:58:31.300Z,101052.72
2023-02-18T15:00:59.620Z,101051.63
2023-02-18T15:03:29.869Z,101051.22
2023-02-18T15:05:57.758Z,101067.06
2023-02-18T15:08:27.263Z,101057.03
2023-02-18T15:11:00.818Z,101064.69
2023-02-18T15:13:31.577Z,101071.38
2023-02-18T15:16:02.886Z,101085.53
2023-02-18T15:18:35.061Z,101090.31
2023-02-18T15:21:03.842Z,101078.97
2023-02-18T15:23:32.990Z,101101.50
2023-02-18T15:26:02.389Z,101102.88
2023-02-18T15:28:32.966Z,101119.56
2023-02-18T15:31:02.788Z,101129.88
2023-02-18T15:33:31.195Z,101137.94
2023-02-18T15:36:03.281Z,101131.84
2023-02-18T15:38:32.155Z,101144.72
2023-02-18T15:41:02.228Z,101158.97
2023-02-18T15:43:31.177Z,101173.28
2023-02-18T15:45:59.981Z,101172.78
2023-02-18T15:48:33.883Z,101178.94
2023-02-18T15:51:16.168Z,101179.25
2023-02-18T15:53:49.030Z,101177.75
2023-02-18T15:56:22.899Z,101172.47
2023-02-18T15:58:50.992Z,101178.22
2023-02-18T16:01:28.642Z,101176.00
2023-02-18T16:03:58.003Z,101182.72
2023-02-18T16:06:28.379Z,101187.72
2023-02-18T16:09:01.602Z,101181.41
2023-02-18T16:11:35.088Z,101190.09
2023-02-18T16:14:03.435Z,101200.81
2023-02-18T16:16:34.624Z,101207.72
2023-02-18T16:19:03.498Z,101214.59
2023-02-18T16:21:34.462Z,101220.28
2023-02-18T16:24:04.553Z,101228.69
2023-02-18T16:26:44.536Z,101240.72
2023-02-18T16:29:15.065Z,101235.84
2023-02-18T16:31:43.098Z,101237.34
2023-02-18T16:34:11.027Z,101240.66
2023-02-18T16:36:59.118Z,101241.97
2023-02-18T16:39:27.636Z,101236.50
2023-02-18T16:41:57.877Z,101237.56
2023-02-18T16:44:25.944Z,101247.50
2023-02-18T16:46:54.007Z,101255.81
2023-02-18T16:49:24.897Z,101261.34
2023-02-18T16:51:52.995Z,101249.97
2023-02-18T16:54:20.876Z,101252.72
2023-02-18T16:56:49.366Z,101253.13
2023-02-18T16:59:18.637Z,101262.78
2023-02-18T17:01:47.061Z,101264.06
2023-02-18T17:04:17.388Z,101260.69
2023-02-18T17:06:46.452Z,101265.34
2023-02-18T17:09:17.014Z,101275.00
2023-02-18T17:11:46.074Z,101278.47
2023-02-18T17:14:18.072Z,101287.38
2023-02-18T17:16:48.269Z,101289.09
2023-02-18T17:19:17.141Z,101294.31
2023-02-18T17:21:50.127Z,101298.97
2023-02-18T17:24:19.993Z,101306.66
2023-02-18T17:26:48.027Z,101309.41
2023-02-18T17:29:15.868Z,101306.00
2023-02-18T17:34:32.704Z,101321.56
2023-02-18T17:37:00.816Z,101325.19
2023-02-18T17:39:31.323Z,101326.75
2023-02-18T17:41:59.205Z,101324.50
2023-02-18T17:44:29.176Z,101328.72
2023-02-18T17:46:58.612Z,101338.50
2023-02-18T17:49:26.451Z,101336.94
2023-02-18T17:51:55.855Z,101329.16
2023-02-18T17:54:26.104Z,101333.66
2023-02-18T17:56:56.004Z,101346.13
2023-02-18T17:59:24.188Z,101338.59
2023-02-18T18:01:52.331Z,101342.88
2023-02-18T18:04:21.832Z,101348.97
2023-02-18T18:06:49.993Z,101365.13
2023-02-18T18:09:17.999Z,101360.13
2023-02-18T18:11:45.908Z,101366.00
2023-02-18T18:14:15.215Z,101365.38
2023-02-18T18:16:43.228Z,101375.38
2023-02-18T18:19:11.136Z,101377.56
2023-02-18T18:21:40.366Z,101378.75
2023-02-18T18:24:09.566Z,101383.03
2023-02-18T18:26:37.497Z,101392.25
2023-02-18T18:29:05.508Z,101398.25
2023-02-18T18:31:33.597Z,101398.81
2023-02-18T18:34:02.952Z,101395.00
2023-02-18T18:36:30.856Z,101397.72
2023-02-18T18:39:00.234Z,101405.44
2023-02-18T18:41:28.116Z,101411.88
2023-02-18T18:43:56.051Z,101417.00
2023-02-18T18:46:23.993Z,101418.72
2023-02-18T18:48:52.826Z,101426.59
2023-02-18T18:51:26.985Z,101425.72
2023-02-18T18:53:55.102Z,101424.31
2023-02-18T18:56:27.412Z,101432.16
2023-02-18T18:58:55.612Z,101439.06
2023-02-18T19:01:27.139Z,101437.16
2023-02-18T19:03:55.439Z,101439.75
2023-02-18T19:06:23.452Z,101440.03
2023-02-18T19:08:51.389Z,101447.81
2023-02-18T19:11:19.368Z,101445.09
2023-02-18T19:13:48.608Z,101449.81
2023-02-18T19:16:20.205Z,101456.44
2023-02-18T19:18:48.884Z,101450.56
2023-02-18T19:21:16.794Z,101447.22
2023-02-18T19:23:45.066Z,101450.69
2023-02-18T19:26:15.777Z,101453.34
2023-02-18T19:28:44.512Z,101471.09
2023-02-18T19:31:16.834Z,101466.66
2023-02-18T19:33:47.063Z,101469.38
2023-02-18T19:36:16.828Z,101470.94
2023-02-18T19:38:48.658Z,101476.47
2023-02-18T19:41:18.122Z,101478.47
2023-02-18T19:43:47.118Z,101472.13
2023-02-18T19:46:18.486Z,101467.63
2023-02-18T19:48:50.670Z,101464.16
2023-02-18T19:51:19.551Z,101468.16
2023-02-18T19:53:47.955Z,101476.81
2023-02-18T19:56:20.499Z,101475.78
2023-02-18T19:58:48.820Z,101475.06
2023-02-18T20:01:19.465Z,101483.13
2023-02-18T20:03:47.681Z,101485.19
2023-02-18T20:06:16.874Z,101487.97
2023-02-18T20:08:45.015Z,101482.88
2023-02-18T20:11:13.053Z,101483.94
2023-02-18T20:13:41.697Z,101498.47
2023-02-18T20:16:11.020Z,101505.53
2023-02-18T20:18:40.605Z,101501.00
2023-02-18T20:21:12.912Z,101502.94
2023-02-18T20:23:41.153Z,101494.56
2023-02-18T20:26:09.460Z,101495.97
2023-02-18T20:28:37.606Z,101499.47
2023-02-18T20:31:07.126Z,101498.31
2023-02-18T20:33:35.353Z,101493.47
2023-02-18T20:36:14.403Z,101491.59
2023-02-18T20:38:42.663Z,101489.75
2023-02-18T20:41:19.823Z,101488.31
2023-02-18T20:43:52.420Z,101488.31
2023-02-18T20:46:24.676Z,101494.44
2023-02-18T20:48:53.266Z,101494.44
2023-02-18T20:51:23.984Z,101507.56
2023-02-18T20:54:40.311Z,101508.91
2023-02-18T20:57:14.575Z,101507.44
2023-02-18T20:59:43.742Z,101511.78
2023-02-18T21:02:16.730Z,101508.31
2023-02-18T21:04:45.210Z,101520.50
2023-02-18T21:07:14.516Z,101515.97
2023-02-18T21:09:45.214Z,101520.13
2023-02-18T21:12:13.474Z,101520.19
2023-02-18T21:14:41.589Z,101514.25
2023-02-18T21:17:09.752Z,101508.00
2023-02-18T21:19:38.046Z,101512.28
2023-02-18T21:22:05.884Z,101506.25
2023-02-18T21:24:36.839Z,101499.38
2023-02-18T21:27:09.530Z,101500.13
2023-02-18T21:29:37.455Z,101491.91
2023-02-18T21:32:14.051Z,101491.03
2023-02-18T21:34:42.587Z,101496.34
2023-02-18T21:37:50.628Z,101499.38
2023-02-18T21:40:36.350Z,101484.59
2023-02-18T21:43:48.252Z,101475.97
2023-02-18T21:47:09.874Z,101482.91
2023-02-18T21:49:37.783Z,101482.22
2023-02-18T21:52:32.458Z,101480.63
2023-02-18T21:58:13.665Z,101476.59
2023-02-18T22:00:41.908Z,101485.28
2023-02-18T22:03:12.779Z,101477.09
2023-02-18T22:05:41.236Z,101481.13
2023-02-18T22:08:09.299Z,101491.72
2023-02-18T22:10:58.982Z,101492.97
2023-02-18T22:13:41.760Z,101488.38
2023-02-18T22:16:10.023Z,101499.13
2023-02-18T22:18:37.877Z,101502.53
2023-02-18T22:21:08.765Z,101515.84
2023-02-18T22:23:37.252Z,101500.63
2023-02-18T22:26:06.531Z,101503.53
2023-02-18T22:28:36.481Z,101502.50
2023-02-18T22:31:07.788Z,101496.13
2023-02-18T22:33:37.084Z,101491.72
2023-02-18T22:36:07.325Z,101480.09
2023-02-18T22:38:36.561Z,101477.19
2023-02-18T22:41:05.888Z,101490.34
2023-02-18T22:43:35.436Z,101493.72
2023-02-18T22:46:04.208Z,101499.78
2023-02-18T22:48:33.352Z,101498.91
2023-02-18T22:51:10.539Z,101499.16
2023-02-18T22:53:39.280Z,101490.44
2023-02-18T22:56:09.430Z,101491.81
2023-02-18T22:58:39.243Z,101484.75
2023-02-18T23:01:08.370Z,101472.25
2023-02-18T23:03:36.705Z,101477.22
2023-02-18T23:06:05.892Z,101480.28
2023-02-18T23:08:34.690Z,101487.03
2023-02-18T23:11:03.219Z,101479.84
2023-02-18T23:13:31.290Z,101466.63
2023-02-18T23:16:01.823Z,101468.78
2023-02-18T23:18:33.023Z,101469.59
2023-02-18T23:21:21.912Z,101467.91
2023-02-18T23:23:55.053Z,101461.09
2023-02-18T23:26:26.785Z,101461.78
2023-02-18T23:28:54.936Z,101459.28
2023-02-18T23:31:29.169Z,101459.88
2023-02-18T23:33:59.169Z,101455.47
2023-02-18T23:36:46.763Z,101444.03
2023-02-18T23:39:37.607Z,101448.53
2023-02-18T23:42:24.976Z,101434.19
2023-02-18T23:44:56.917Z,101428.13
2023-02-18T23:47:26.109Z,101435.06
2023-02-18T23:49:57.968Z,101429.63
2023-02-18T23:52:26.015Z,101421.38
2023-02-18T23:54:54.434Z,101415.97
2023-02-18T23:57:23.980Z,101429.19
2023-02-18T23:59:52.083Z,101436.94
